AirNav   Pilot Hours Calculator
 
 815 users online  

M34 Kentucky Dam State Park Airport
Calvert City, Kentucky, USA

GOING TO CALVERT CITY?


FAA INFORMATION EFFECTIVE 05 DECEMBER 2019

Location

FAA Identifier: M34
Lat/Long: 37-00-35.2460N 088-17-57.8502W
37-00.587433N 088-17.964170W
37.0097906,-88.2994028
(estimated)
Elevation: 350.8 ft. / 106.9 m (surveyed)
Variation: 03W (2020)
From city: 3 miles SE of CALVERT CITY, KY
Time zone: UTC -6 (UTC -5 during Daylight Saving Time)
Zip code: 42044

Airport Operations

Airport use: Open to the public
Activation date: 10/1948
Control tower: no
ARTCC: MEMPHIS CENTER
FSS: LOUISVILLE FLIGHT SERVICE STATION
NOTAMs facility: LOU (NOTAM-D service available)
Attendance: UNATNDD
Wind indicator: lighted
Segmented circle: yes
Lights: ACTVT REIL RWY 10 & 28; PAPI RWY 10 & 28; MIRL RWY 10/28 - CTAF.
Beacon: white-green (lighted land airport)
Operates sunset to sunrise.

Airport Communications

CTAF/UNICOM: 123.0
WX AWOS-3 at M25 (20 nm SW): 120.625 (270-247-2094)

Nearby radio navigation aids

VOR radial/distance  VOR name  Freq  Var
CNGr087/25.8CUNNINGHAM VOR/DME113.1003E

Airport Services

Parking: tiedowns
Airframe service: NONE
Powerplant service: NONE
Bottled oxygen: NONE
Bulk oxygen: NONE

Runway Information

Runway 10/28

Dimensions: 4005 x 100 ft. / 1221 x 30 m
Surface: asphalt, in good condition
Weight bearing capacity: 
Single wheel: 12.5
Runway edge lights: medium intensity
RUNWAY 10  RUNWAY 28
Latitude: 37-00.640533N37-00.534333N
Longitude: 088-18.370300W088-17.558040W
Elevation: 348.6 ft.350.7 ft.
Traffic pattern: leftleft
Markings: nonprecision, in good conditionnonprecision, in good condition
Visual slope indicator: 2-light PAPI on left (4.00 degrees glide path)2-light PAPI on left (4.00 degrees glide path)
Runway end identifier lights: yesyes
Touchdown point: yes, no lightsyes, no lights
Obstructions: 60 ft. trees, 1875 ft. from runway, 48 ft. left of centerline, 27:1 slope to clear34 ft. trees, 480 ft. from runway, 88 ft. left of centerline, 8:1 slope to clear

Airport Ownership and Management from official FAA records

Ownership: Publicly-owned
Owner: KENTUCKY DEPT. OF PARKS
2 HUDSON HOLLOW UNIT 1
FRANKFORT, KY 40601
Phone (502) 892-3367
Manager: DAVID ELLIOTT
P.O. BOX 36
CALVERT CITY, KY 42029
Phone (270) 395-4545

Airport Operational Statistics

Aircraft based on the field: 14
Single engine airplanes: 14
    
Aircraft operations: avg 44/day *
69% transient general aviation
19% military
9% local general aviation
3% air taxi
* for 12-month period ending 11 October 2016

Additional Remarks

DEER AND LARGE FLOCKS OF GEESE ON AND INVOF ARPT.
TRANSPORTATION TO PARK LODGE AVAIL 270-362-4271.
FOR CD CTC MEMPHIS ARTCC AT 901-368-8453.

Instrument Procedures

There are no published instrument procedures at M34.

Some nearby airports with instrument procedures:

M25 - Mayfield Graves County Airport (20 nm SW)
KCEY - Kyle-Oakley Field Airport (21 nm S)
5M9 - Marion-Crittenden County Airport (22 nm NE)
2M0 - Princeton-Caldwell County Airport (22 nm E)
KPAH - Barkley Regional Airport (23 nm W)
 
Loc | Ops | Rwys | IFR | FBO | Links
Com | Nav | Svcs | Stats | Notes
Area around M34 (Kentucky Dam State Park Airport)
 
Road maps at: MapQuest Bing Google
 
Aerial photo
WARNING: Photo may not be current or correct
Aerial photo of M34 (Kentucky Dam State Park Airport)
Photo by Brandon Tanner
Photo taken 02-Apr-2015
looking east.

Do you have a better or more recent aerial photo of Kentucky Dam State Park Airport that you would like to share? If so, please send us your photo.

 
Sectional chart

 
Airport distance calculator
Flying to Kentucky Dam State Park Airport? Find the distance to fly.

From to M34

Sunrise and sunset
Times for 08-Dec-2019
 Local
(UTC-6)
 Zulu
(UTC)
Morning civil twilight06:2612:26
Sunrise06:5512:55
Sunset16:3522:35
Evening civil twilight17:0423:04

Current date and time
Zulu (UTC)  09-Dec-2019 01:00:37
Local (UTC-6)  08-Dec-2019 19:00:37
 
METAR
KM25 
20nm SW 
090055Z AUTO 16007KT 10SM CLR 13/10 A2995 RMK AO2
KCEY 
21nm S 
090035Z AUTO 15010G14KT 10SM FEW030 BKN036 OVC047 13/10 A2995 RMK AO1
K5M9 
22nm NE 
090035Z AUTO 17005KT 10SM SCT038 OVC046 13/08 A2994 RMK AO2 T01260078
KPAH 
23nm W 
090053Z 00000KT 10SM OVC034 10/07 A2992 RMK AO2 SLP133 T01000067 $
KM30 
24nm NW 
090035Z AUTO 00000KT 10SM BKN035 OVC040 10/07 A2994 RMK AO2 T00980071
TAF
KPAH 
23nm W 
081738Z 0818/0918 19010G17KT P6SM SCT040 FM082300 17008KT P6SM BKN035 FM090900 18011KT P6SM VCSH OVC020 FM091300 20012G19KT 5SM -SHRA BR OVC012 FM091500 21012G19KT 4SM -SHRA BR OVC009
NOTAMs
Click for the latest NOTAMs
NOTAMs are issued by the DoD/FAA and will open in a separate window not controlled by AirNav.

 

 
 

FBO, Fuel Providers, and Aircraft Ground Support

  
 Business Name 
 
 Contact 
 
 Services / Description 
 
Fuel Prices
 
Comments
  
Calvert City 270-395-7138
[web site]
[email]

Like us on facebook See us on instagram Follow us on twitter
Airport management, Aircraft parking (ramp or tiedown), Hangars, Passenger terminal and lounge, Courtesy transportation, Public telephone, Restrooms, Showers

More info about Calvert City
no fuel
 
   write
Update Fuel Prices
 

Would you like to see your business listed on this page?

 If your business provides an interesting product or service to pilots, flight crews, aircraft, or users of the Kentucky Dam State Park Airport, you should consider listing it here.  To start the listing process, click on the button below
 
Add a business
 

Other Pages about Kentucky Dam State Park Airport

Update a link
 
Copyright © AirNav, LLC. All rights reserved. Privacy Policy  Contact